sensor_id;sensor_type;location;lat;lon;timestamp;pressure;altitude;pressure_sealevel;temperature;humidity
35331;BME280;21441;52.190;20.910;2023-01-26T00:01:11;101042.53;;;0.45;100.00
35331;BME280;21441;52.190;20.910;2023-01-26T00:03:39;101008.59;;;0.26;100.00
35331;BME280;21441;52.190;20.910;2023-01-26T00:06:07;101047.53;;;0.49;100.00
35331;BME280;21441;52.190;20.910;2023-01-26T00:08:35;101042.91;;;0.69;100.00
35331;BME280;21441;52.190;20.910;2023-01-26T00:11:05;101041.50;;;0.47;100.00
35331;BME280;21441;52.190;20.910;2023-01-26T00:13:34;101037.44;;;0.41;100.00
35331;BME280;21441;52.190;20.910;2023-01-26T00:16:02;101035.53;;;0.75;100.00
35331;BME280;21441;52.190;20.910;2023-01-26T00:18:30;101039.38;;;0.54;100.00
35331;BME280;21441;52.190;20.910;2023-01-26T00:20:58;101032.25;;;0.56;100.00
35331;BME280;21441;52.190;20.910;2023-01-26T00:23:27;101040.63;;;0.63;100.00
35331;BME280;21441;52.190;20.910;2023-01-26T00:25:55;101039.94;;;0.75;100.00
35331;BME280;21441;52.190;20.910;2023-01-26T00:28:24;101038.19;;;0.90;100.00
35331;BME280;21441;52.190;20.910;2023-01-26T00:30:51;101041.50;;;0.93;100.00
35331;BME280;21441;52.190;20.910;2023-01-26T00:33:19;101031.75;;;1.10;100.00
35331;BME280;21441;52.190;20.910;2023-01-26T00:35:53;101041.28;;;1.27;100.00
35331;BME280;21441;52.190;20.910;2023-01-26T00:38:20;101020.88;;;1.16;100.00
35331;BME280;21441;52.190;20.910;2023-01-26T00:40:47;101029.69;;;1.00;100.00
35331;BME280;21441;52.190;20.910;2023-01-26T00:43:15;101038.19;;;0.90;100.00
35331;BME280;21441;52.190;20.910;2023-01-26T00:45:44;101033.94;;;0.73;100.00
35331;BME280;21441;52.190;20.910;2023-01-26T00:48:11;101017.13;;;1.06;100.00
35331;BME280;21441;52.190;20.910;2023-01-26T00:50:39;101018.91;;;1.05;100.00
35331;BME280;21441;52.190;20.910;2023-01-26T00:53:06;101024.53;;;0.99;100.00
35331;BME280;21441;52.190;20.910;2023-01-26T00:55:34;101018.25;;;1.01;100.00
35331;BME280;21441;52.190;20.910;2023-01-26T00:58:02;101021.44;;;0.92;100.00
35331;BME280;21441;52.190;20.910;2023-01-26T01:00:31;101020.06;;;0.85;100.00
35331;BME280;21441;52.190;20.910;2023-01-26T01:03:01;101020.59;;;1.06;100.00
35331;BME280;21441;52.190;20.910;2023-01-26T01:05:30;101026.34;;;1.13;100.00
35331;BME280;21441;52.190;20.910;2023-01-26T01:07:58;101011.13;;;1.03;100.00
35331;BME280;21441;52.190;20.910;2023-01-26T01:10:25;101026.34;;;0.82;100.00
35331;BME280;21441;52.190;20.910;2023-01-26T01:12:53;101023.69;;;0.68;100.00
35331;BME280;21441;52.190;20.910;2023-01-26T01:15:21;101015.34;;;0.76;100.00
35331;BME280;21441;52.190;20.910;2023-01-26T01:17:48;101017.09;;;0.91;100.00
35331;BME280;21441;52.190;20.910;2023-01-26T01:20:17;100998.91;;;0.72;100.00
35331;BME280;21441;52.190;20.910;2023-01-26T01:22:44;101010.25;;;0.89;100.00
35331;BME280;21441;52.190;20.910;2023-01-26T01:25:12;100995.03;;;0.79;100.00
35331;BME280;21441;52.190;20.910;2023-01-26T01:27:39;100988.47;;;0.87;100.00
35331;BME280;21441;52.190;20.910;2023-01-26T01:30:09;100995.25;;;0.91;100.00
35331;BME280;21441;52.190;20.910;2023-01-26T01:32:37;100989.94;;;0.76;100.00
35331;BME280;21441;52.190;20.910;2023-01-26T01:35:05;100976.72;;;0.78;100.00
35331;BME280;21441;52.190;20.910;2023-01-26T01:37:34;100973.97;;;0.65;100.00
35331;BME280;21441;52.190;20.910;2023-01-26T01:40:03;100976.19;;;0.57;100.00
35331;BME280;21441;52.190;20.910;2023-01-26T01:42:32;100974.69;;;0.53;100.00
35331;BME280;21441;52.190;20.910;2023-01-26T01:45:34;100971.19;;;0.52;100.00
35331;BME280;21441;52.190;20.910;2023-01-26T01:48:08;100960.13;;;0.47;100.00
35331;BME280;21441;52.190;20.910;2023-01-26T01:50:39;100958.56;;;0.59;100.00
35331;BME280;21441;52.190;20.910;2023-01-26T01:53:14;100945.53;;;0.57;100.00
35331;BME280;21441;52.190;20.910;2023-01-26T01:55:51;100953.72;;;0.67;100.00
35331;BME280;21441;52.190;20.910;2023-01-26T01:58:20;100944.44;;;0.61;100.00
35331;BME280;21441;52.190;20.910;2023-01-26T02:00:48;100947.88;;;0.62;100.00
35331;BME280;21441;52.190;20.910;2023-01-26T02:03:16;100941.03;;;0.59;100.00
35331;BME280;21441;52.190;20.910;2023-01-26T02:05:54;100928.16;;;0.55;100.00
35331;BME280;21441;52.190;20.910;2023-01-26T02:08:26;100932.88;;;0.64;100.00
35331;BME280;21441;52.190;20.910;2023-01-26T02:10:58;100935.31;;;0.53;100.00
35331;BME280;21441;52.190;20.910;2023-01-26T02:13:28;100945.91;;;0.66;100.00
35331;BME280;21441;52.190;20.910;2023-01-26T02:15:58;100934.56;;;0.65;100.00
35331;BME280;21441;52.190;20.910;2023-01-26T02:18:26;100930.28;;;0.48;100.00
35331;BME280;21441;52.190;20.910;2023-01-26T02:20:56;100923.72;;;0.41;100.00
35331;BME280;21441;52.190;20.910;2023-01-26T02:23:35;100926.56;;;0.52;100.00
35331;BME280;21441;52.190;20.910;2023-01-26T02:26:09;100929.94;;;0.54;100.00
35331;BME280;21441;52.190;20.910;2023-01-26T02:28:40;100931.09;;;0.65;100.00
35331;BME280;21441;52.190;20.910;2023-01-26T02:31:09;100923.03;;;0.68;100.00
35331;BME280;21441;52.190;20.910;2023-01-26T02:33:37;100925.78;;;0.66;100.00
35331;BME280;21441;52.190;20.910;2023-01-26T02:36:06;100916.44;;;0.46;100.00
35331;BME280;21441;52.190;20.910;2023-01-26T02:38:38;100912.31;;;0.56;100.00
35331;BME280;21441;52.190;20.910;2023-01-26T02:41:10;100903.88;;;0.66;100.00
35331;BME280;21441;52.190;20.910;2023-01-26T02:43:39;100909.53;;;0.59;100.00
35331;BME280;21441;52.190;20.910;2023-01-26T02:46:05;100910.66;;;0.55;100.00
35331;BME280;21441;52.190;20.910;2023-01-26T02:48:33;100897.66;;;0.38;100.00
35331;BME280;21441;52.190;20.910;2023-01-26T02:51:29;100897.38;;;0.43;100.00
35331;BME280;21441;52.190;20.910;2023-01-26T02:53:56;100909.41;;;0.47;100.00
35331;BME280;21441;52.190;20.910;2023-01-26T02:56:25;100907.22;;;0.84;100.00
35331;BME280;21441;52.190;20.910;2023-01-26T02:58:51;100901.56;;;0.75;100.00
35331;BME280;21441;52.190;20.910;2023-01-26T03:01:18;100889.38;;;0.74;100.00
35331;BME280;21441;52.190;20.910;2023-01-26T03:03:46;100895.19;;;0.65;100.00
35331;BME280;21441;52.190;20.910;2023-01-26T03:06:14;100878.78;;;0.76;100.00
35331;BME280;21441;52.190;20.910;2023-01-26T03:08:42;100880.38;;;0.78;100.00
35331;BME280;21441;52.190;20.910;2023-01-26T03:11:09;100885.53;;;0.80;100.00
35331;BME280;21441;52.190;20.910;2023-01-26T03:13:38;100839.09;;;0.66;100.00
35331;BME280;21441;52.190;20.910;2023-01-26T03:16:06;100872.13;;;0.85;100.00
35331;BME280;21441;52.190;20.910;2023-01-26T03:18:35;100864.41;;;0.67;100.00
35331;BME280;21441;52.190;20.910;2023-01-26T03:21:19;100864.59;;;0.78;100.00
35331;BME280;21441;52.190;20.910;2023-01-26T03:24:05;100861.34;;;0.75;100.00
35331;BME280;21441;52.190;20.910;2023-01-26T03:26:50;100857.03;;;0.88;100.00
35331;BME280;21441;52.190;20.910;2023-01-26T03:29:36;100857.03;;;0.88;100.00
35331;BME280;21441;52.190;20.910;2023-01-26T03:32:04;100848.03;;;0.92;100.00
35331;BME280;21441;52.190;20.910;2023-01-26T03:34:31;100854.09;;;0.78;100.00
35331;BME280;21441;52.190;20.910;2023-01-26T03:36:58;100845.19;;;0.67;100.00
35331;BME280;21441;52.190;20.910;2023-01-26T03:39:26;100844.44;;;0.65;100.00
35331;BME280;21441;52.190;20.910;2023-01-26T03:42:11;100852.13;;;0.68;100.00
35331;BME280;21441;52.190;20.910;2023-01-26T03:44:57;100850.84;;;0.75;100.00
35331;BME280;21441;52.190;20.910;2023-01-26T03:47:42;100843.22;;;0.70;100.00
35331;BME280;21441;52.190;20.910;2023-01-26T03:50:26;100837.50;;;0.78;100.00
35331;BME280;21441;52.190;20.910;2023-01-26T03:53:13;100830.38;;;0.80;100.00
35331;BME280;21441;52.190;20.910;2023-01-26T03:55:58;100833.22;;;0.77;100.00
35331;BME280;21441;52.190;20.910;2023-01-26T03:58:48;100828.41;;;0.69;100.00
35331;BME280;21441;52.190;20.910;2023-01-26T04:01:18;100844.25;;;0.68;100.00
35331;BME280;21441;52.190;20.910;2023-01-26T04:03:50;100818.53;;;0.58;100.00
35331;BME280;21441;52.190;20.910;2023-01-26T04:06:35;100825.56;;;0.72;100.00
35331;BME280;21441;52.190;20.910;2023-01-26T04:09:20;100816.19;;;0.82;100.00
35331;BME280;21441;52.190;20.910;2023-01-26T04:11:48;100824.28;;;0.65;100.00
35331;BME280;21441;52.190;20.910;2023-01-26T04:14:16;100816.50;;;0.92;100.00
35331;BME280;21441;52.190;20.910;2023-01-26T04:17:03;100818.94;;;0.95;100.00
35331;BME280;21441;52.190;20.910;2023-01-26T04:19:48;100824.00;;;0.84;100.00
35331;BME280;21441;52.190;20.910;2023-01-26T04:22:34;100815.19;;;0.71;100.00
35331;BME280;21441;52.190;20.910;2023-01-26T04:25:09;100816.59;;;0.62;100.00
35331;BME280;21441;52.190;20.910;2023-01-26T04:27:37;100821.47;;;0.82;100.00
35331;BME280;21441;52.190;20.910;2023-01-26T04:30:06;100814.81;;;0.77;100.00
35331;BME280;21441;52.190;20.910;2023-01-26T04:32:35;100825.69;;;0.71;100.00
35331;BME280;21441;52.190;20.910;2023-01-26T04:35:03;100818.56;;;0.73;100.00
35331;BME280;21441;52.190;20.910;2023-01-26T04:37:30;100823.31;;;0.52;100.00
35331;BME280;21441;52.190;20.910;2023-01-26T04:39:58;100836.09;;;0.58;100.00
35331;BME280;21441;52.190;20.910;2023-01-26T04:42:26;100815.44;;;0.80;100.00
35331;BME280;21441;52.190;20.910;2023-01-26T04:44:53;100821.56;;;0.95;100.00
35331;BME280;21441;52.190;20.910;2023-01-26T04:47:21;100821.34;;;0.98;100.00
35331;BME280;21441;52.190;20.910;2023-01-26T04:49:50;100822.69;;;0.91;100.00
35331;BME280;21441;52.190;20.910;2023-01-26T04:52:17;100824.09;;;0.82;100.00
35331;BME280;21441;52.190;20.910;2023-01-26T04:54:44;100806.06;;;0.76;100.00
35331;BME280;21441;52.190;20.910;2023-01-26T04:57:11;100815.00;;;0.74;100.00
35331;BME280;21441;52.190;20.910;2023-01-26T04:59:39;100817.16;;;0.81;100.00
35331;BME280;21441;52.190;20.910;2023-01-26T05:02:06;100814.81;;;0.77;100.00
35331;BME280;21441;52.190;20.910;2023-01-26T05:04:34;100801.84;;;0.74;100.00
35331;BME280;21441;52.190;20.910;2023-01-26T05:07:02;100813.88;;;0.78;100.00
35331;BME280;21441;52.190;20.910;2023-01-26T05:09:30;100804.84;;;0.68;100.00
35331;BME280;21441;52.190;20.910;2023-01-26T05:11:57;100808.03;;;0.58;100.00
35331;BME280;21441;52.190;20.910;2023-01-26T05:14:45;100797.16;;;0.50;100.00
35331;BME280;21441;52.190;20.910;2023-01-26T05:17:12;100811.13;;;0.65;100.00
35331;BME280;21441;52.190;20.910;2023-01-26T05:19:39;100803.09;;;0.68;100.00
35331;BME280;21441;52.190;20.910;2023-01-26T05:22:08;100796.69;;;0.72;100.00
35331;BME280;21441;52.190;20.910;2023-01-26T05:24:35;100801.38;;;0.67;100.00
35331;BME280;21441;52.190;20.910;2023-01-26T05:27:03;100781.97;;;0.70;100.00
35331;BME280;21441;52.190;20.910;2023-01-26T05:29:50;100798.41;;;0.73;100.00
35331;BME280;21441;52.190;20.910;2023-01-26T05:32:18;100802.13;;;0.69;100.00
35331;BME280;21441;52.190;20.910;2023-01-26T05:34:47;100804.19;;;0.78;100.00
35331;BME280;21441;52.190;20.910;2023-01-26T05:37:15;100786.94;;;0.74;100.00
35331;BME280;21441;52.190;20.910;2023-01-26T05:39:45;100789.19;;;0.95;100.00
35331;BME280;21441;52.190;20.910;2023-01-26T05:42:13;100794.25;;;0.98;100.00
35331;BME280;21441;52.190;20.910;2023-01-26T05:44:40;100800.34;;;0.84;100.00
35331;BME280;21441;52.190;20.910;2023-01-26T05:47:07;100796.16;;;0.81;100.00
35331;BME280;21441;52.190;20.910;2023-01-26T05:49:35;100796.44;;;0.77;100.00
35331;BME280;21441;52.190;20.910;2023-01-26T05:52:07;100798.38;;;0.88;100.00
35331;BME280;21441;52.190;20.910;2023-01-26T05:54:37;100803.81;;;0.85;100.00
35331;BME280;21441;52.190;20.910;2023-01-26T05:57:05;100805.03;;;0.93;100.00
35331;BME280;21441;52.190;20.910;2023-01-26T05:59:32;100801.47;;;0.94;100.00
35331;BME280;21441;52.190;20.910;2023-01-26T06:02:00;100810.84;;;0.98;100.00
35331;BME280;21441;52.190;20.910;2023-01-26T06:04:28;100808.41;;;0.95;100.00
35331;BME280;21441;52.190;20.910;2023-01-26T06:06:56;100797.63;;;0.71;100.00
35331;BME280;21441;52.190;20.910;2023-01-26T06:09:24;100811.88;;;0.96;100.00
35331;BME280;21441;52.190;20.910;2023-01-26T06:11:53;100810.00;;;1.12;100.00
35331;BME280;21441;52.190;20.910;2023-01-26T06:14:20;100807.84;;;1.05;100.00
35331;BME280;21441;52.190;20.910;2023-01-26T06:16:48;100807.09;;;1.02;100.00
35331;BME280;21441;52.190;20.910;2023-01-26T06:19:15;100817.88;;;0.98;100.00
35331;BME280;21441;52.190;20.910;2023-01-26T06:21:42;100813.50;;;0.84;100.00
35331;BME280;21441;52.190;20.910;2023-01-26T06:24:10;100810.66;;;0.87;100.00
35331;BME280;21441;52.190;20.910;2023-01-26T06:26:37;100804.03;;;0.81;100.00
35331;BME280;21441;52.190;20.910;2023-01-26T06:29:08;100798.56;;;0.85;100.00
35331;BME280;21441;52.190;20.910;2023-01-26T06:31:35;100806.28;;;0.73;100.00
35331;BME280;21441;52.190;20.910;2023-01-26T06:34:03;100801.59;;;0.64;100.00
35331;BME280;21441;52.190;20.910;2023-01-26T06:36:30;100806.34;;;0.72;100.00
35331;BME280;21441;52.190;20.910;2023-01-26T06:38:58;100800.84;;;0.62;100.00
35331;BME280;21441;52.190;20.910;2023-01-26T06:41:25;100767.03;;;0.41;100.00
35331;BME280;21441;52.190;20.910;2023-01-26T06:43:52;100809.25;;;0.67;100.00
35331;BME280;21441;52.190;20.910;2023-01-26T06:46:21;100805.22;;;0.76;100.00
35331;BME280;21441;52.190;20.910;2023-01-26T06:48:49;100802.06;;;0.71;100.00
35331;BME280;21441;52.190;20.910;2023-01-26T06:51:41;100795.69;;;0.75;100.00
35331;BME280;21441;52.190;20.910;2023-01-26T06:54:10;100802.03;;;0.85;100.00
35331;BME280;21441;52.190;20.910;2023-01-26T06:56:37;100794.06;;;0.72;100.00
35331;BME280;21441;52.190;20.910;2023-01-26T06:59:05;100795.94;;;0.70;100.00
35331;BME280;21441;52.190;20.910;2023-01-26T07:01:38;100788.28;;;0.53;100.00
35331;BME280;21441;52.190;20.910;2023-01-26T07:04:07;100787.13;;;0.57;100.00
35331;BME280;21441;52.190;20.910;2023-01-26T07:06:34;100783.84;;;0.39;100.00
35331;BME280;21441;52.190;20.910;2023-01-26T07:09:02;100790.00;;;0.24;100.00
35331;BME280;21441;52.190;20.910;2023-01-26T07:11:30;100797.44;;;0.31;100.00
35331;BME280;21441;52.190;20.910;2023-01-26T07:13:58;100803.25;;;0.36;100.00
35331;BME280;21441;52.190;20.910;2023-01-26T07:16:25;100783.91;;;0.23;100.00
35331;BME280;21441;52.190;20.910;2023-01-26T07:18:54;100792.75;;;0.36;100.00
35331;BME280;21441;52.190;20.910;2023-01-26T07:21:21;100788.22;;;0.24;100.00
35331;BME280;21441;52.190;20.910;2023-01-26T07:23:49;100781.38;;;0.22;100.00
35331;BME280;21441;52.190;20.910;2023-01-26T07:26:18;100783.09;;;0.23;100.00
35331;BME280;21441;52.190;20.910;2023-01-26T07:28:46;100785.50;;;0.26;100.00
35331;BME280;21441;52.190;20.910;2023-01-26T07:31:13;100779.97;;;0.16;100.00
35331;BME280;21441;52.190;20.910;2023-01-26T07:33:41;100776.31;;;0.18;100.00
35331;BME280;21441;52.190;20.910;2023-01-26T07:36:10;100780.81;;;0.16;100.00
35331;BME280;21441;52.190;20.910;2023-01-26T07:38:37;100783.16;;;0.21;100.00
35331;BME280;21441;52.190;20.910;2023-01-26T07:41:07;100776.25;;;0.20;100.00
35331;BME280;21441;52.190;20.910;2023-01-26T07:43:35;100773.56;;;0.06;100.00
35331;BME280;21441;52.190;20.910;2023-01-26T07:46:03;100758.09;;;0.01;100.00
35331;BME280;21441;52.190;20.910;2023-01-26T07:48:31;100772.88;;;0.18;100.00
35331;BME280;21441;52.190;20.910;2023-01-26T07:51:01;100763.75;;;0.09;100.00
35331;BME280;21441;52.190;20.910;2023-01-26T07:53:31;100764.03;;;0.19;100.00
35331;BME280;21441;52.190;20.910;2023-01-26T07:56:06;100780.13;;;0.13;100.00
35331;BME280;21441;52.190;20.910;2023-01-26T07:58:35;100764.47;;;-0.03;100.00
35331;BME280;21441;52.190;20.910;2023-01-26T08:01:07;100781.84;;;0.14;100.00
35331;BME280;21441;52.190;20.910;2023-01-26T08:03:35;100786.41;;;0.10;100.00
35331;BME280;21441;52.190;20.910;2023-01-26T08:06:02;100777.63;;;0.11;100.00
35331;BME280;21441;52.190;20.910;2023-01-26T08:08:32;100777.97;;;0.05;100.00
35331;BME280;21441;52.190;20.910;2023-01-26T08:11:00;100773.31;;;0.10;100.00
35331;BME280;21441;52.190;20.910;2023-01-26T08:13:29;100767.88;;;0.13;100.00
35331;BME280;21441;52.190;20.910;2023-01-26T08:16:00;100773.22;;;0.26;100.00
35331;BME280;21441;52.190;20.910;2023-01-26T08:18:29;100764.22;;;0.16;100.00
35331;BME280;21441;52.190;20.910;2023-01-26T08:20:58;100774.84;;;0.29;100.00
35331;BME280;21441;52.190;20.910;2023-01-26T08:23:26;100762.53;;;0.15;100.00
35331;BME280;21441;52.190;20.910;2023-01-26T08:25:54;100775.50;;;0.32;100.00
35331;BME280;21441;52.190;20.910;2023-01-26T08:28:26;100774.38;;;0.36;100.00
35331;BME280;21441;52.190;20.910;2023-01-26T08:30:53;100774.84;;;0.43;100.00
35331;BME280;21441;52.190;20.910;2023-01-26T08:33:21;100767.34;;;0.37;100.00
35331;BME280;21441;52.190;20.910;2023-01-26T08:35:48;100775.22;;;0.37;100.00
35331;BME280;21441;52.190;20.910;2023-01-26T08:38:16;100770.78;;;0.23;100.00
35331;BME280;21441;52.190;20.910;2023-01-26T08:40:43;100765.53;;;0.23;100.00
35331;BME280;21441;52.190;20.910;2023-01-26T08:43:12;100763.28;;;0.17;100.00
35331;BME280;21441;52.190;20.910;2023-01-26T08:45:39;100774.94;;;0.27;100.00
35331;BME280;21441;52.190;20.910;2023-01-26T08:48:07;100734.69;;;0.12;100.00
35331;BME280;21441;52.190;20.910;2023-01-26T08:50:34;100762.31;;;0.04;100.00
35331;BME280;21441;52.190;20.910;2023-01-26T08:53:01;100777.84;;;0.23;100.00
35331;BME280;21441;52.190;20.910;2023-01-26T08:55:29;100768.44;;;0.18;100.00
35331;BME280;21441;52.190;20.910;2023-01-26T08:57:57;100778.19;;;0.16;100.00
35331;BME280;21441;52.190;20.910;2023-01-26T09:00:27;100782.59;;;0.30;100.00
35331;BME280;21441;52.190;20.910;2023-01-26T09:02:58;100775.97;;;0.25;100.00
35331;BME280;21441;52.190;20.910;2023-01-26T09:05:26;100793.69;;;0.35;100.00
35331;BME280;21441;52.190;20.910;2023-01-26T09:07:54;100790.50;;;0.45;100.00
35331;BME280;21441;52.190;20.910;2023-01-26T09:10:21;100794.53;;;0.36;100.00
35331;BME280;21441;52.190;20.910;2023-01-26T09:12:49;100800.41;;;0.39;100.00
35331;BME280;21441;52.190;20.910;2023-01-26T09:15:16;100804.19;;;0.35;100.00
35331;BME280;21441;52.190;20.910;2023-01-26T09:17:47;100766.94;;;0.14;100.00
35331;BME280;21441;52.190;20.910;2023-01-26T09:20:14;100799.94;;;0.33;100.00
35331;BME280;21441;52.190;20.910;2023-01-26T09:22:42;100801.66;;;0.34;100.00
35331;BME280;21441;52.190;20.910;2023-01-26T09:25:09;100805.50;;;0.43;100.00
35331;BME280;21441;52.190;20.910;2023-01-26T09:27:37;100802.53;;;0.49;100.00
35331;BME280;21441;52.190;20.910;2023-01-26T09:30:06;100797.16;;;0.65;100.00
35331;BME280;21441;52.190;20.910;2023-01-26T09:32:34;100766.22;;;0.41;100.00
35331;BME280;21441;52.190;20.910;2023-01-26T09:35:03;100793.53;;;0.53;100.00
35331;BME280;21441;52.190;20.910;2023-01-26T09:37:30;100786.56;;;0.52;100.00
35331;BME280;21441;52.190;20.910;2023-01-26T09:39:57;100781.41;;;0.50;100.00
35331;BME280;21441;52.190;20.910;2023-01-26T09:42:31;100783.09;;;0.51;100.00
35331;BME280;21441;52.190;20.910;2023-01-26T09:45:15;100775.88;;;0.40;100.00
35331;BME280;21441;52.190;20.910;2023-01-26T09:47:57;100789.91;;;0.39;100.00
35331;BME280;21441;52.190;20.910;2023-01-26T09:50:33;100770.44;;;0.29;100.00
35331;BME280;21441;52.190;20.910;2023-01-26T09:53:06;100788.31;;;0.23;100.00
35331;BME280;21441;52.190;20.910;2023-01-26T09:55:39;100784.75;;;0.24;100.00
35331;BME280;21441;52.190;20.910;2023-01-26T09:58:12;100774.28;;;0.38;100.00
35331;BME280;21441;52.190;20.910;2023-01-26T10:00:44;100771.81;;;0.35;100.00
35331;BME280;21441;52.190;20.910;2023-01-26T10:03:19;100768.66;;;0.44;100.00
35331;BME280;21441;52.190;20.910;2023-01-26T10:05:52;100764.53;;;0.40;100.00
35331;BME280;21441;52.190;20.910;2023-01-26T10:08:21;100761.53;;;0.32;100.00
35331;BME280;21441;52.190;20.910;2023-01-26T10:10:52;100766.84;;;0.30;100.00
35331;BME280;21441;52.190;20.910;2023-01-26T10:13:21;100748.69;;;0.27;100.00
35331;BME280;21441;52.190;20.910;2023-01-26T10:15:52;100743.25;;;0.45;100.00
35331;BME280;21441;52.190;20.910;2023-01-26T10:18:24;100754.84;;;0.55;100.00
35331;BME280;21441;52.190;20.910;2023-01-26T10:20:54;100749.16;;;0.34;100.00
35331;BME280;21441;52.190;20.910;2023-01-26T10:23:26;100751.88;;;0.47;100.00
35331;BME280;21441;52.190;20.910;2023-01-26T10:26:01;100737.34;;;0.55;100.00
35331;BME280;21441;52.190;20.910;2023-01-26T10:28:33;100745.88;;;0.45;100.00
35331;BME280;21441;52.190;20.910;2023-01-26T10:31:04;100738.84;;;0.45;100.00
35331;BME280;21441;52.190;20.910;2023-01-26T10:33:35;100738.28;;;0.40;100.00
35331;BME280;21441;52.190;20.910;2023-01-26T10:36:06;100718.59;;;0.33;100.00
35331;BME280;21441;52.190;20.910;2023-01-26T10:38:42;100718.13;;;0.40;100.00
35331;BME280;21441;52.190;20.910;2023-01-26T10:41:24;100719.44;;;0.48;100.00
35331;BME280;21441;52.190;20.910;2023-01-26T10:43:54;100720.94;;;0.52;100.00
35331;BME280;21441;52.190;20.910;2023-01-26T10:46:24;100700.03;;;0.22;100.00
35331;BME280;21441;52.190;20.910;2023-01-26T10:48:53;100721.88;;;0.51;100.00
35331;BME280;21441;52.190;20.910;2023-01-26T10:51:26;100725.34;;;0.51;100.00
35331;BME280;21441;52.190;20.910;2023-01-26T10:54:22;100717.75;;;0.47;100.00
35331;BME280;21441;52.190;20.910;2023-01-26T10:56:52;100710.34;;;0.53;100.00
35331;BME280;21441;52.190;20.910;2023-01-26T10:59:27;100706.75;;;0.54;100.00
35331;BME280;21441;52.190;20.910;2023-01-26T11:01:59;100694.69;;;0.52;100.00
35331;BME280;21441;52.190;20.910;2023-01-26T11:04:27;100681.53;;;0.52;100.00
35331;BME280;21441;52.190;20.910;2023-01-26T11:07:14;100685.50;;;0.45;100.00
35331;BME280;21441;52.190;20.910;2023-01-26T11:09:50;100687.00;;;0.49;100.00
35331;BME280;21441;52.190;20.910;2023-01-26T11:12:19;100680.53;;;0.40;100.00
35331;BME280;21441;52.190;20.910;2023-01-26T11:14:59;100682.88;;;0.45;100.00
35331;BME280;21441;52.190;20.910;2023-01-26T11:17:30;100667.75;;;0.48;100.00
35331;BME280;21441;52.190;20.910;2023-01-26T11:20:26;100687.81;;;0.64;100.00
35331;BME280;21441;52.190;20.910;2023-01-26T11:23:00;100680.06;;;0.48;100.00
35331;BME280;21441;52.190;20.910;2023-01-26T11:25:34;100669.53;;;0.62;100.00
35331;BME280;21441;52.190;20.910;2023-01-26T11:28:26;100657.25;;;0.63;100.00
35331;BME280;21441;52.190;20.910;2023-01-26T11:31:07;100653.78;;;0.48;100.00
35331;BME280;21441;52.190;20.910;2023-01-26T11:33:47;100657.00;;;0.53;100.00
35331;BME280;21441;52.190;20.910;2023-01-26T11:36:28;100653.13;;;0.58;100.00
35331;BME280;21441;52.190;20.910;2023-01-26T11:39:06;100658.59;;;0.41;100.00
35331;BME280;21441;52.190;20.910;2023-01-26T11:41:51;100649.38;;;0.48;100.00
35331;BME280;21441;52.190;20.910;2023-01-26T11:44:36;100652.00;;;0.48;100.00
35331;BME280;21441;52.190;20.910;2023-01-26T11:47:15;100652.38;;;0.56;100.00
35331;BME280;21441;52.190;20.910;2023-01-26T11:49:58;100642.25;;;0.50;100.00
35331;BME280;21441;52.190;20.910;2023-01-26T11:52:32;100637.34;;;0.73;100.00
35331;BME280;21441;52.190;20.910;2023-01-26T11:55:27;100640.72;;;0.75;100.00
35331;BME280;21441;52.190;20.910;2023-01-26T11:58:14;100641.34;;;0.78;100.00
35331;BME280;21441;52.190;20.910;2023-01-26T12:00:48;100645.38;;;0.84;100.00
35331;BME280;21441;52.190;20.910;2023-01-26T12:03:23;100633.09;;;0.70;100.00
35331;BME280;21441;52.190;20.910;2023-01-26T12:05:54;100630.31;;;0.73;100.00
35331;BME280;21441;52.190;20.910;2023-01-26T12:08:27;100643.78;;;0.81;100.00
35331;BME280;21441;52.190;20.910;2023-01-26T12:11:07;100631.66;;;0.66;100.00
35331;BME280;21441;52.190;20.910;2023-01-26T12:14:15;100634.28;;;0.66;100.00
35331;BME280;21441;52.190;20.910;2023-01-26T12:16:52;100623.41;;;0.58;100.00
35331;BME280;21441;52.190;20.910;2023-01-26T12:19:36;100627.28;;;0.79;100.00
35331;BME280;21441;52.190;20.910;2023-01-26T12:22:12;100623.41;;;0.85;100.00
35331;BME280;21441;52.190;20.910;2023-01-26T12:24:44;100546.53;;;0.29;100.00
35331;BME280;21441;52.190;20.910;2023-01-26T12:27:18;100617.03;;;0.89;100.00
35331;BME280;21441;52.190;20.910;2023-01-26T12:29:50;100617.09;;;0.88;100.00
35331;BME280;21441;52.190;20.910;2023-01-26T12:32:20;100601.41;;;1.00;100.00
35331;BME280;21441;52.190;20.910;2023-01-26T12:34:49;100597.59;;;0.92;100.00
35331;BME280;21441;52.190;20.910;2023-01-26T12:37:36;100624.72;;;0.92;100.00
35331;BME280;21441;52.190;20.910;2023-01-26T12:40:17;100617.84;;;0.90;100.00
35331;BME280;21441;52.190;20.910;2023-01-26T12:42:55;100622.31;;;1.02;100.00
35331;BME280;21441;52.190;20.910;2023-01-26T12:45:28;100620.22;;;1.07;100.00
35331;BME280;21441;52.190;20.910;2023-01-26T12:48:04;100626.19;;;0.96;100.00
35331;BME280;21441;52.190;20.910;2023-01-26T12:50:37;100628.47;;;0.88;100.00
35331;BME280;21441;52.190;20.910;2023-01-26T12:53:10;100620.47;;;0.90;100.00
35331;BME280;21441;52.190;20.910;2023-01-26T12:55:41;100600.75;;;0.70;100.00
35331;BME280;21441;52.190;20.910;2023-01-26T12:58:15;100619.41;;;0.79;100.00
35331;BME280;21441;52.190;20.910;2023-01-26T13:00:51;100620.00;;;0.97;100.00
35331;BME280;21441;52.190;20.910;2023-01-26T13:03:21;100626.84;;;1.00;100.00